AVA9700 SKEJ-SKBO
Flight info
| Callsign | AVA9700 |
|---|---|
| Flight time | N/A |
| Altitude | 24000 |
| Route | AKSOK1A AKSOK G431 ILSEV ILSEV4E |
| Aircraft | A320/M-SDE3FGHIRWY/LB1 |
Departure
| Time | N/A |
|---|---|
| Airport | Yariguíes Airport (SKEJ) |
Arrival
| Time | 2026-05-07 00:33 |
|---|---|
| Airport | El Dorado International Airport (SKBO) |
| Time | Latitude | Longitude | Altitude | Speed | Heading |
|---|---|---|---|---|---|
| 2026-05-07 00:25 | 5.09285 | -74.44950 | 15438 ft | 319 kts | 165° |
| 2026-05-07 00:25 | 5.07100 | -74.44540 | 15050 ft | 320 kts | 165° |
| 2026-05-07 00:25 | 5.04911 | -74.44130 | 14631 ft | 318 kts | 165° |
| 2026-05-07 00:26 | 5.02773 | -74.43731 | 14191 ft | 307 kts | 165° |
| 2026-05-07 00:26 | 5.00740 | -74.43355 | 13798 ft | 295 kts | 165° |
| 2026-05-07 00:26 | 4.98759 | -74.42986 | 13406 ft | 286 kts | 165° |
| 2026-05-07 00:26 | 4.96823 | -74.42622 | 13076 ft | 280 kts | 165° |
| 2026-05-07 00:27 | 4.94732 | -74.42228 | 13015 ft | 279 kts | 165° |
| 2026-05-07 00:27 | 4.92829 | -74.41807 | 12934 ft | 278 kts | 157° |
| 2026-05-07 00:27 | 4.91103 | -74.40980 | 12842 ft | 273 kts | 143° |
| 2026-05-07 00:27 | 4.89667 | -74.39752 | 12486 ft | 270 kts | 129° |
| 2026-05-07 00:28 | 4.88461 | -74.38346 | 12179 ft | 270 kts | 128° |
| 2026-05-07 00:28 | 4.87233 | -74.36922 | 11849 ft | 271 kts | 129° |
| 2026-05-07 00:28 | 4.85997 | -74.35494 | 11551 ft | 271 kts | 129° |
| 2026-05-07 00:28 | 4.84775 | -74.34087 | 11260 ft | 261 kts | 129° |
| 2026-05-07 00:29 | 4.83634 | -74.32777 | 11192 ft | 239 kts | 129° |
| 2026-05-07 00:29 | 4.82575 | -74.31562 | 11104 ft | 227 kts | 129° |
| 2026-05-07 00:30 | 4.79582 | -74.28120 | 10847 ft | 201 kts | 129° |
| 2026-05-07 00:30 | 4.78754 | -74.27087 | 10770 ft | 186 kts | 126° |
| 2026-05-07 00:30 | 4.77989 | -74.26084 | 10605 ft | 176 kts | 126° |
| 2026-05-07 00:30 | 4.77259 | -74.25121 | 10425 ft | 172 kts | 126° |
| 2026-05-07 00:31 | 4.76534 | -74.24163 | 10219 ft | 172 kts | 125° |
| 2026-05-07 00:31 | 4.75817 | -74.23215 | 10020 ft | 169 kts | 126° |
| 2026-05-07 00:31 | 4.75119 | -74.22294 | 9786 ft | 162 kts | 126° |
| 2026-05-07 00:31 | 4.74672 | -74.21702 | 9641 ft | 159 kts | 124° |
| 2026-05-07 00:32 | 4.73783 | -74.20528 | 9348 ft | 159 kts | 125° |
| 2026-05-07 00:32 | 4.73124 | -74.19659 | 9119 ft | 157 kts | 126° |
| 2026-05-07 00:32 | 4.72468 | -74.18792 | 8891 ft | 157 kts | 126° |
| 2026-05-07 00:32 | 4.71804 | -74.17915 | 8666 ft | 159 kts | 126° |
| 2026-05-07 00:33 | 4.71141 | -74.17040 | 8442 ft | 157 kts | 127° |
| 2026-05-07 00:33 | 4.70524 | -74.16214 | 8367 ft | 133 kts | 128° |
| 2026-05-07 00:33 | 4.70135 | -74.15706 | 8364 ft | 48 kts | 127° |
| 2026-05-07 00:33 | 4.70001 | -74.15528 | 8364 ft | 27 kts | 127° |
| 2026-05-07 00:34 | 4.69888 | -74.15382 | 8366 ft | 26 kts | 128° |
| 2026-05-07 00:34 | 4.69781 | -74.15238 | 8365 ft | 26 kts | 126° |
| 2026-05-07 00:34 | 4.69723 | -74.15085 | 8365 ft | 21 kts | 101° |
| 2026-05-07 00:34 | 4.69706 | -74.14948 | 8365 ft | 19 kts | 95° |
| 2026-05-07 00:35 | 4.69712 | -74.14839 | 8366 ft | 11 kts | 57° |
| 2026-05-07 00:35 | 4.69771 | -74.14792 | 8366 ft | 11 kts | 37° |
| 2026-05-07 00:35 | 4.69838 | -74.14742 | 8366 ft | 13 kts | 36° |
| 2026-05-07 00:35 | 4.69913 | -74.14687 | 8366 ft | 14 kts | 36° |
| 2026-05-07 00:36 | 4.69997 | -74.14625 | 8366 ft | 15 kts | 37° |
| 2026-05-07 00:36 | 4.70043 | -74.14571 | 8366 ft | 8 kts | 97° |
| 2026-05-07 00:36 | 4.69999 | -74.14530 | 8366 ft | 9 kts | 174° |
| 2026-05-07 00:36 | 4.69932 | -74.14537 | 8366 ft | 9 kts | 185° |
| 2026-05-07 00:37 | 4.69928 | -74.14537 | 8366 ft | 0 kts | 186° |